Time;durP1;ratioP1;P1;durP2;ratioP2;P2;SDS_P1;SDS_P2;PMS_P1;PMS_P2;Temp;Humidity;BMP_temperature;BMP_pressure;BME280_temperature;BME280_humidity;BME280_pressure;Samples;Min_cycle;Max_cycle;Signal;HPM_P1;HPM_P2
2023/03/14 00:01:13;;;;;;;10.23;5.40;;;;;;;7.32;47.22;100359.75;5074492;28;20654;-65
2023/03/14 00:03:42;;;;;;;8.90;4.25;;;;;;;7.16;47.77;100353.19;5075874;28;20123;-69
2023/03/14 00:06:08;;;;;;;5.13;3.90;;;;;;;7.19;47.48;100345.03;5076751;28;20031;-69
2023/03/14 00:08:34;;;;;;;10.03;4.27;;;;;;;7.35;47.35;100348.13;5077991;28;20234;-69
2023/03/14 00:11:14;;;;;;;7.63;4.70;;;;;;;7.47;47.35;100349.72;5076145;28;20024;-69
2023/03/14 00:13:40;;;;;;;8.15;4.88;;;;;;;7.43;46.70;100347.47;5077491;28;20241;-69
2023/03/14 00:16:08;;;;;;;8.38;4.28;;;;;;;7.31;47.80;100342.25;5077482;28;20048;-65
2023/03/14 00:18:33;;;;;;;8.45;4.63;;;;;;;7.30;48.20;100339.75;5075428;28;20044;-69
2023/03/14 00:21:00;;;;;;;10.07;5.35;;;;;;;7.22;48.14;100332.44;5075479;28;20279;-65
2023/03/14 00:23:28;;;;;;;9.40;4.80;;;;;;;7.20;47.97;100330.91;5072801;28;20311;-65
2023/03/14 00:25:53;;;;;;;8.02;5.38;;;;;;;7.21;48.72;100327.31;5075867;28;20033;-65
2023/03/14 00:28:18;;;;;;;9.07;5.40;;;;;;;7.08;48.80;100316.94;5075199;28;20031;-64
2023/03/14 00:30:44;;;;;;;6.63;4.22;;;;;;;7.05;48.60;100312.75;5075653;28;20040;-65
2023/03/14 00:33:09;;;;;;;6.75;4.38;;;;;;;6.91;48.57;100318.31;5075495;28;20330;-64
2023/03/14 00:35:35;;;;;;;6.20;4.28;;;;;;;6.79;49.51;100321.94;5074296;28;20047;-65
2023/03/14 00:38:00;;;;;;;6.90;4.05;;;;;;;6.81;49.35;100314.75;5081533;28;20246;-65
2023/03/14 00:40:25;;;;;;;5.63;4.00;;;;;;;6.71;49.32;100316.47;5076699;28;20043;-70
2023/03/14 00:42:51;;;;;;;6.57;4.35;;;;;;;6.60;49.13;100306.81;5074178;28;20040;-69
2023/03/14 00:45:16;;;;;;;4.07;2.92;;;;;;;6.29;50.35;100300.50;5073514;28;20046;-68
2023/03/14 00:47:45;;;;;;;4.90;3.88;;;;;;;6.08;50.79;100302.16;5070063;28;20091;-65
2023/03/14 00:50:11;;;;;;;6.90;4.10;;;;;;;5.93;51.19;100308.63;5073727;28;20226;-70
2023/03/14 00:52:36;;;;;;;5.35;3.63;;;;;;;6.14;51.09;100299.06;5076102;28;20055;-70
2023/03/14 00:55:02;;;;;;;7.63;4.30;;;;;;;6.15;50.77;100299.91;5075278;28;20036;-69
2023/03/14 00:57:28;;;;;;;10.75;5.85;;;;;;;6.41;50.78;100293.44;5074895;28;20091;-69
2023/03/14 00:59:53;;;;;;;7.63;4.15;;;;;;;6.56;49.79;100292.22;5075662;28;20048;-66
2023/03/14 01:02:19;;;;;;;7.75;4.45;;;;;;;6.65;49.79;100288.00;5074697;28;20031;-65
2023/03/14 01:04:47;;;;;;;6.43;4.00;;;;;;;6.67;49.53;100284.31;5073268;28;20108;-69
2023/03/14 01:07:13;;;;;;;5.65;4.30;;;;;;;6.67;50.35;100278.19;5072560;28;20242;-64
2023/03/14 01:09:38;;;;;;;5.95;4.05;;;;;;;6.68;48.71;100271.97;5075721;28;20041;-65
2023/03/14 01:12:04;;;;;;;5.10;3.50;;;;;;;6.50;48.48;100269.03;5074413;28;20028;-65
2023/03/14 01:14:29;;;;;;;6.68;3.75;;;;;;;6.54;49.09;100267.84;5074739;28;20044;-65
2023/03/14 01:17:00;;;;;;;6.32;4.20;;;;;;;6.62;48.42;100267.22;5075004;28;20229;-69
2023/03/14 01:19:28;;;;;;;7.45;3.47;;;;;;;6.49;48.80;100264.72;5076001;28;20071;-65
2023/03/14 01:21:54;;;;;;;6.18;4.10;;;;;;;6.38;49.62;100264.75;5072890;28;20102;-69
2023/03/14 01:24:20;;;;;;;8.15;4.40;;;;;;;6.46;49.65;100262.34;5073698;28;20080;-69
2023/03/14 01:26:46;;;;;;;6.72;4.30;;;;;;;6.57;49.96;100261.47;5074177;28;20028;-65
2023/03/14 01:29:11;;;;;;;12.77;5.70;;;;;;;6.66;49.81;100255.47;5074026;28;20267;-65
2023/03/14 01:31:37;;;;;;;10.45;5.63;;;;;;;6.62;49.17;100260.16;5074201;28;20036;-70
2023/03/14 01:34:02;;;;;;;10.27;5.20;;;;;;;6.53;49.47;100252.16;5075791;28;20246;-70
2023/03/14 01:36:28;;;;;;;8.90;4.50;;;;;;;6.56;49.63;100263.28;5073684;28;20265;-65
2023/03/14 01:38:53;;;;;;;10.95;5.03;;;;;;;6.73;48.99;100254.84;5073381;28;20036;-69
2023/03/14 01:41:22;;;;;;;9.48;4.68;;;;;;;6.73;49.49;100254.84;5075427;28;20048;-64
2023/03/14 01:43:49;;;;;;;9.48;5.53;;;;;;;6.66;49.05;100256.31;5074918;28;20202;-69
2023/03/14 01:46:17;;;;;;;9.95;5.60;;;;;;;6.76;48.81;100250.28;5073628;28;20028;-65
2023/03/14 01:48:45;;;;;;;9.25;5.75;;;;;;;6.70;48.90;100247.22;5073339;28;20049;-65
2023/03/14 01:51:16;;;;;;;10.68;6.03;;;;;;;6.75;49.13;100252.09;5074977;28;20036;-64
2023/03/14 01:53:43;;;;;;;7.00;4.90;;;;;;;6.73;49.63;100244.31;5076062;28;20109;-65
2023/03/14 01:56:11;;;;;;;9.10;5.68;;;;;;;6.54;49.85;100254.69;5069418;28;20094;-69
2023/03/14 01:58:40;;;;;;;8.77;5.22;;;;;;;6.17;51.37;100240.13;5074872;28;20036;-65
2023/03/14 02:01:06;;;;;;;11.40;5.30;;;;;;;6.49;50.33;100238.44;5074414;28;20031;-68
2023/03/14 02:03:43;;;;;;;8.38;5.30;;;;;;;6.19;50.54;100236.44;5075834;28;20118;-65
2023/03/14 02:06:10;;;;;;;8.98;5.32;;;;;;;6.16;50.15;100239.31;5073429;28;20020;-70
2023/03/14 02:08:37;;;;;;;11.10;5.68;;;;;;;6.14;50.26;100230.69;5074291;28;20040;-69
2023/03/14 02:11:04;;;;;;;10.63;6.07;;;;;;;6.07;49.96;100230.34;5075560;28;20028;-67
2023/03/14 02:13:29;;;;;;;7.90;5.38;;;;;;;6.08;50.62;100225.94;5076286;28;20037;-65
2023/03/14 02:15:54;;;;;;;11.32;5.43;;;;;;;6.11;50.02;100235.38;5074442;28;20048;-70
2023/03/14 02:18:20;;;;;;;14.98;6.32;;;;;;;6.17;51.19;100232.25;5078857;28;20226;-65
2023/03/14 02:21:08;;;;;;;13.15;5.85;;;;;;;6.15;51.21;100237.63;5077392;28;20309;-69
2023/03/14 02:24:01;;;;;;;9.95;5.32;;;;;;;6.23;50.25;100232.59;5078201;28;20047;-69
2023/03/14 02:26:34;;;;;;;12.25;6.30;;;;;;;6.21;50.75;100234.50;5078265;28;20044;-69
2023/03/14 02:28:59;;;;;;;8.90;5.43;;;;;;;6.29;49.88;100229.50;5078298;28;20036;-65
2023/03/14 02:31:25;;;;;;;7.93;5.60;;;;;;;6.37;50.16;100226.25;5077725;28;20090;-65
2023/03/14 02:33:51;;;;;;;9.98;5.57;;;;;;;6.40;49.45;100232.13;5075767;28;20028;-65
2023/03/14 02:36:19;;;;;;;8.80;6.07;;;;;;;6.44;50.14;100224.81;5076968;28;20113;-68
2023/03/14 02:38:53;;;;;;;10.52;5.97;;;;;;;6.34;50.16;100222.09;5078321;28;20353;-64
2023/03/14 02:41:19;;;;;;;10.57;5.85;;;;;;;6.23;49.79;100223.88;5076155;28;20044;-69
2023/03/14 02:43:44;;;;;;;9.88;7.03;;;;;;;6.17;50.40;100230.44;5076262;28;20121;-69
2023/03/14 02:46:12;;;;;;;10.00;6.60;;;;;;;6.04;50.77;100238.47;5077261;28;20095;-70
2023/03/14 02:48:45;;;;;;;12.13;7.18;;;;;;;6.20;50.47;100247.78;5075918;28;20131;-65
2023/03/14 02:51:12;;;;;;;13.95;6.97;;;;;;;6.13;51.11;100243.97;5078871;28;20083;-65
2023/03/14 02:53:38;;;;;;;24.55;11.63;;;;;;;5.93;51.64;100235.84;5077732;28;20100;-69
2023/03/14 02:56:04;;;;;;;53.83;23.48;;;;;;;5.92;51.48;100234.19;5076023;28;20040;-65
2023/03/14 02:58:30;;;;;;;35.83;14.93;;;;;;;5.94;51.69;100242.78;5077691;28;20111;-69
2023/03/14 03:00:56;;;;;;;20.35;9.10;;;;;;;5.57;52.52;100246.56;5077234;28;20131;-69
2023/03/14 03:03:21;;;;;;;11.25;6.68;;;;;;;5.64;52.86;100247.78;5077833;28;20074;-64
2023/03/14 03:05:52;;;;;;;13.88;7.32;;;;;;;5.64;53.07;100251.22;5077593;28;20028;-65
2023/03/14 03:08:20;;;;;;;25.35;11.30;;;;;;;5.90;52.14;100237.91;5075312;28;20048;-65
2023/03/14 03:10:45;;;;;;;33.25;15.27;;;;;;;6.02;51.71;100244.81;5075236;28;20062;-70
2023/03/14 03:13:11;;;;;;;21.35;9.50;;;;;;;5.84;51.51;100248.84;5078510;28;20036;-69
2023/03/14 03:15:36;;;;;;;17.92;9.07;;;;;;;5.83;50.47;100253.28;5075725;28;20036;-70
2023/03/14 03:18:02;;;;;;;14.73;9.02;;;;;;;5.80;50.61;100258.78;5076581;28;20032;-70
2023/03/14 03:20:27;;;;;;;15.32;7.72;;;;;;;5.42;52.77;100261.72;5078519;28;20052;-69
2023/03/14 03:22:53;;;;;;;13.32;7.57;;;;;;;5.19;53.21;100252.09;5077025;28;20233;-65
2023/03/14 03:25:18;;;;;;;15.70;8.27;;;;;;;4.88;54.22;100261.41;5076345;28;20036;-65
2023/03/14 03:27:44;;;;;;;14.27;7.30;;;;;;;5.03;54.43;100250.59;5074754;28;20032;-69
2023/03/14 03:30:10;;;;;;;11.50;6.68;;;;;;;4.99;54.38;100249.16;5075656;28;20029;-69
2023/03/14 03:32:35;;;;;;;12.55;6.63;;;;;;;5.01;54.05;100256.91;5075264;28;20036;-70
2023/03/14 03:35:03;;;;;;;14.00;7.03;;;;;;;5.30;53.61;100249.50;5071301;28;20032;-64
2023/03/14 03:37:31;;;;;;;13.18;6.15;;;;;;;5.29;53.02;100251.31;5075144;28;20059;-69
2023/03/14 03:39:56;;;;;;;40.63;16.55;;;;;;;5.44;52.76;100238.78;5075378;28;20048;-69
2023/03/14 03:42:22;;;;;;;16.65;7.88;;;;;;;5.51;52.75;100247.03;5077082;28;20037;-69
2023/03/14 03:44:48;;;;;;;18.58;9.38;;;;;;;5.51;51.99;100244.41;5076458;28;20044;-65
2023/03/14 03:47:13;;;;;;;12.43;6.25;;;;;;;5.55;50.89;100241.44;5077100;28;20036;-70
2023/03/14 03:49:39;;;;;;;9.55;5.45;;;;;;;5.59;50.36;100250.75;5075977;28;20109;-69
2023/03/14 03:52:04;;;;;;;9.20;4.70;;;;;;;5.55;49.57;100245.84;5077807;28;20033;-62
2023/03/14 03:54:30;;;;;;;5.72;4.60;;;;;;;5.45;50.00;100250.97;5075436;28;20236;-65
2023/03/14 03:56:55;;;;;;;8.55;4.80;;;;;;;5.41;50.55;100247.75;5076992;28;20298;-62
2023/03/14 03:59:21;;;;;;;7.10;4.97;;;;;;;5.44;50.41;100244.06;5078323;28;20070;-66
2023/03/14 04:01:46;;;;;;;6.38;3.75;;;;;;;5.44;49.79;100244.88;5075152;28;20035;-70
2023/03/14 04:04:12;;;;;;;9.88;5.47;;;;;;;5.40;49.07;100242.59;5075717;28;20024;-67
2023/03/14 04:06:38;;;;;;;8.85;5.63;;;;;;;5.28;50.68;100233.03;5076384;28;20032;-67
2023/03/14 04:09:04;;;;;;;10.68;6.05;;;;;;;4.82;50.81;100236.44;5076612;28;20060;-62
2023/03/14 04:11:29;;;;;;;9.68;5.38;;;;;;;4.70;51.52;100221.63;5075249;28;20040;-63
2023/03/14 04:13:55;;;;;;;7.65;5.57;;;;;;;4.58;52.37;100230.38;5077674;28;20035;-68
2023/03/14 04:16:23;;;;;;;10.32;5.50;;;;;;;4.59;52.70;100226.81;5076670;28;20043;-67
2023/03/14 04:18:49;;;;;;;8.23;5.07;;;;;;;4.70;52.37;100224.25;5075278;28;20048;-67
2023/03/14 04:21:14;;;;;;;11.35;5.40;;;;;;;4.47;52.95;100218.88;5077645;28;20080;-66
2023/03/14 04:23:40;;;;;;;10.73;5.90;;;;;;;4.49;53.73;100217.00;5075619;28;20124;-69
2023/03/14 04:26:05;;;;;;;7.60;5.47;;;;;;;4.30;54.47;100216.66;5076177;28;20040;-69
2023/03/14 04:28:31;;;;;;;9.10;6.30;;;;;;;4.38;54.44;100205.63;5075369;28;20040;-64
2023/03/14 04:30:57;;;;;;;9.15;5.90;;;;;;;4.56;54.16;100214.75;5075831;28;20040;-69
2023/03/14 04:33:23;;;;;;;12.82;5.55;;;;;;;4.66;53.50;100212.31;5078139;28;20331;-68
2023/03/14 04:35:50;;;;;;;10.07;5.13;;;;;;;4.74;53.33;100209.94;5076703;28;20325;-64
2023/03/14 04:38:15;;;;;;;10.20;5.65;;;;;;;4.88;53.35;100209.75;5075643;28;20051;-65
2023/03/14 04:40:42;;;;;;;8.80;5.13;;;;;;;4.95;53.13;100202.25;5075814;28;20028;-70
2023/03/14 04:43:09;;;;;;;8.50;5.57;;;;;;;5.06;52.47;100212.78;5077168;28;20077;-65
2023/03/14 04:45:35;;;;;;;30.27;13.88;;;;;;;5.19;52.59;100205.66;5075241;28;20036;-69
2023/03/14 04:48:00;;;;;;;18.92;8.10;;;;;;;5.32;52.13;100218.72;5076760;28;20573;-69
2023/03/14 04:50:26;;;;;;;10.35;6.65;;;;;;;5.43;51.84;100214.31;5074353;28;20042;-64
2023/03/14 04:52:51;;;;;;;64.15;20.25;;;;;;;5.54;51.40;100217.91;5074456;28;20039;-64
2023/03/14 04:55:16;;;;;;;27.98;11.23;;;;;;;5.54;51.61;100220.53;5074999;28;20032;-69
2023/03/14 04:57:42;;;;;;;16.40;6.57;;;;;;;5.42;52.08;100224.94;5073920;28;20106;-65
2023/03/14 05:00:08;;;;;;;13.45;6.30;;;;;;;5.40;52.01;100227.69;5072662;28;20344;-65
2023/03/14 05:02:34;;;;;;;10.10;6.80;;;;;;;5.19;52.21;100221.41;5073628;28;20419;-69
2023/03/14 05:05:00;;;;;;;8.52;5.25;;;;;;;5.13;52.29;100224.50;5075335;28;20055;-68
2023/03/14 05:07:26;;;;;;;13.10;5.93;;;;;;;4.93;52.87;100231.25;5074736;28;20068;-69
2023/03/14 05:09:53;;;;;;;10.85;5.50;;;;;;;4.87;53.16;100233.50;5075796;28;20039;-64
2023/03/14 05:12:18;;;;;;;9.65;5.72;;;;;;;4.79;53.48;100234.06;5074053;28;20055;-64
2023/03/14 05:14:44;;;;;;;9.48;5.72;;;;;;;4.63;54.53;100230.88;5073961;28;20373;-64
2023/03/14 05:17:10;;;;;;;9.73;5.03;;;;;;;4.45;55.93;100230.44;5074164;28;20312;-64
2023/03/14 05:19:36;;;;;;;9.48;5.38;;;;;;;4.64;55.82;100237.81;5074994;28;20052;-65
2023/03/14 05:22:02;;;;;;;11.85;5.13;;;;;;;4.65;56.29;100232.44;5075808;28;20039;-64
2023/03/14 05:24:28;;;;;;;8.60;4.50;;;;;;;4.62;57.05;100235.28;5076485;28;20214;-68
2023/03/14 05:26:53;;;;;;;7.18;4.85;;;;;;;4.62;57.74;100234.47;5070085;28;20380;-69
2023/03/14 05:29:18;;;;;;;7.65;4.53;;;;;;;4.78;57.73;100241.09;5073731;28;20063;-65
2023/03/14 05:31:44;;;;;;;7.82;4.40;;;;;;;4.54;58.52;100237.63;5074100;28;20391;-65
2023/03/14 05:34:09;;;;;;;8.85;4.78;;;;;;;4.26;59.87;100241.41;5074846;28;20059;-68
2023/03/14 05:36:35;;;;;;;8.13;5.15;;;;;;;4.47;60.45;100241.66;5074899;28;20040;-68
2023/03/14 05:39:00;;;;;;;8.65;5.35;;;;;;;4.81;60.06;100238.25;5075380;28;20036;-65
2023/03/14 05:41:26;;;;;;;9.80;5.10;;;;;;;4.97;59.69;100240.56;5074714;28;20032;-64
2023/03/14 05:43:51;;;;;;;8.95;5.00;;;;;;;5.12;59.59;100233.31;5073440;28;20036;-64
2023/03/14 05:46:17;;;;;;;9.30;5.22;;;;;;;5.27;58.78;100240.06;5075815;28;20036;-69
2023/03/14 05:48:42;;;;;;;16.00;8.15;;;;;;;5.56;57.79;100239.66;5074691;28;20045;-64
2023/03/14 05:51:07;;;;;;;12.23;7.80;;;;;;;5.74;55.44;100232.97;5075062;28;20040;-69
2023/03/14 05:53:33;;;;;;;11.75;7.03;;;;;;;5.86;55.08;100239.91;5079272;28;20241;-69
2023/03/14 05:55:58;;;;;;;11.55;6.90;;;;;;;6.23;55.68;100244.91;5080132;28;20032;-65
2023/03/14 05:58:24;;;;;;;13.18;8.40;;;;;;;6.66;53.93;100244.94;5081506;28;20039;-64
2023/03/14 06:00:50;;;;;;;16.88;8.77;;;;;;;6.99;51.91;100243.97;5079523;28;20342;-65
2023/03/14 06:03:15;;;;;;;14.57;8.10;;;;;;;7.15;51.00;100236.47;5078730;28;20040;-69
2023/03/14 06:05:41;;;;;;;16.02;8.98;;;;;;;7.23;50.82;100234.03;5077458;28;20075;-65
2023/03/14 06:08:06;;;;;;;21.75;9.75;;;;;;;7.39;50.33;100233.59;5078876;28;20353;-64
2023/03/14 06:10:32;;;;;;;16.13;8.90;;;;;;;7.46;50.51;100242.66;5080923;28;20036;-69
2023/03/14 06:12:58;;;;;;;18.85;10.20;;;;;;;7.70;50.36;100237.09;5080403;28;20040;-64
2023/03/14 06:15:23;;;;;;;12.27;9.07;;;;;;;7.87;49.01;100241.75;5078956;28;20118;-64
2023/03/14 06:17:48;;;;;;;22.35;10.75;;;;;;;8.11;48.63;100232.69;5079025;28;20047;-64
2023/03/14 06:20:14;;;;;;;14.40;8.50;;;;;;;8.27;48.18;100239.09;5082311;28;20035;-67
2023/03/14 06:22:40;;;;;;;21.63;11.30;;;;;;;8.42;47.37;100238.78;5090739;28;20033;-69
2023/03/14 06:25:06;;;;;;;30.20;13.40;;;;;;;8.52;46.98;100234.34;5090142;28;20221;-65
2023/03/14 06:27:32;;;;;;;15.65;8.13;;;;;;;8.65;46.94;100232.28;5088823;28;20444;-64
2023/03/14 06:29:58;;;;;;;15.65;8.50;;;;;;;8.67;46.83;100229.50;5087779;28;20418;-69
2023/03/14 06:32:24;;;;;;;12.15;7.63;;;;;;;8.67;47.09;100227.69;5084358;28;20344;-64
2023/03/14 06:34:50;;;;;;;13.02;8.05;;;;;;;8.77;47.41;100225.91;5092063;28;20040;-65
2023/03/14 06:37:15;;;;;;;14.55;8.32;;;;;;;8.92;48.04;100226.31;5086451;28;20043;-69
2023/03/14 06:39:41;;;;;;;9.45;7.13;;;;;;;9.13;46.97;100220.88;5087776;28;20046;-69
2023/03/14 06:42:06;;;;;;;14.88;7.03;;;;;;;9.34;46.19;100218.06;5084241;28;20032;-69
2023/03/14 06:44:32;;;;;;;13.50;6.30;;;;;;;9.36;45.90;100227.50;5076903;28;20096;-70
2023/03/14 06:46:57;;;;;;;13.80;10.68;;;;;;;9.00;46.10;100229.09;5082782;28;20036;-65
2023/03/14 06:49:23;;;;;;;17.75;14.45;;;;;;;9.22;45.55;100228.78;5093900;28;20036;-65
2023/03/14 06:51:48;;;;;;;13.15;10.48;;;;;;;9.43;45.16;100230.44;5085047;28;20103;-67
2023/03/14 06:54:14;;;;;;;11.88;8.07;;;;;;;9.53;45.08;100224.16;5080120;28;20029;-63
2023/03/14 06:56:39;;;;;;;12.65;6.70;;;;;;;9.47;44.18;100224.72;5088432;28;20038;-62
2023/03/14 06:59:05;;;;;;;12.57;8.45;;;;;;;9.37;44.13;100220.44;5088605;28;20036;-70
2023/03/14 07:01:32;;;;;;;13.15;6.65;;;;;;;9.51;43.99;100212.88;5085224;28;20289;-65
2023/03/14 07:03:58;;;;;;;13.90;6.70;;;;;;;9.80;44.16;100211.94;5086111;28;20032;-62
2023/03/14 07:06:24;;;;;;;12.30;6.70;;;;;;;9.99;43.34;100203.09;5089744;28;20046;-67
2023/03/14 07:08:49;;;;;;;11.48;6.30;;;;;;;9.91;43.66;100198.53;5089615;28;20040;-62
2023/03/14 07:11:15;;;;;;;11.13;6.45;;;;;;;10.19;42.91;100197.53;5088364;28;20077;-67
2023/03/14 07:13:40;;;;;;;7.45;5.50;;;;;;;10.37;42.53;100192.31;5079711;28;20044;-67
2023/03/14 07:16:07;;;;;;;10.90;7.07;;;;;;;10.50;42.35;100191.97;5073933;28;20036;-68
2023/03/14 07:18:33;;;;;;;10.45;6.45;;;;;;;10.68;41.40;100184.03;5075469;28;20037;-67
2023/03/14 07:20:58;;;;;;;10.52;5.82;;;;;;;10.85;42.40;100183.19;5074992;28;20081;-68
2023/03/14 07:23:24;;;;;;;6.85;5.50;;;;;;;10.63;42.55;100173.06;5075980;28;20052;-67
2023/03/14 07:25:50;;;;;;;10.73;5.93;;;;;;;10.70;42.49;100180.25;5073834;28;20047;-64
2023/03/14 07:28:16;;;;;;;7.18;4.97;;;;;;;10.83;42.06;100159.50;5070623;28;20237;-63
2023/03/14 07:30:42;;;;;;;9.45;5.80;;;;;;;10.91;41.36;100160.53;5078826;28;20060;-69
2023/03/14 07:33:07;;;;;;;10.15;5.72;;;;;;;11.19;40.54;100165.56;5079539;28;20044;-65
2023/03/14 07:35:32;;;;;;;8.85;5.78;;;;;;;11.38;40.43;100167.16;5079054;28;20089;-70
2023/03/14 07:37:58;;;;;;;10.07;5.70;;;;;;;11.50;40.10;100168.59;5079547;28;20320;-65
2023/03/14 07:40:23;;;;;;;10.40;6.18;;;;;;;11.10;40.73;100169.13;5078133;28;20078;-69
2023/03/14 07:42:49;;;;;;;9.70;5.82;;;;;;;11.27;39.04;100167.41;5077859;28;20039;-65
2023/03/14 07:45:15;;;;;;;10.75;6.18;;;;;;;11.40;39.26;100164.34;5078498;28;20040;-67
2023/03/14 07:47:40;;;;;;;7.80;5.28;;;;;;;11.34;38.98;100160.50;5077961;28;20379;-69
2023/03/14 07:50:07;;;;;;;9.68;5.75;;;;;;;11.54;38.85;100162.97;5077503;28;20041;-70
2023/03/14 07:52:32;;;;;;;9.48;5.68;;;;;;;11.32;39.39;100159.00;5077923;28;20031;-65
2023/03/14 07:54:57;;;;;;;9.40;6.80;;;;;;;11.69;38.68;100150.78;5077673;28;20029;-66
2023/03/14 07:57:24;;;;;;;14.60;8.18;;;;;;;12.06;38.24;100150.44;5077145;28;20042;-65
2023/03/14 07:59:49;;;;;;;14.10;8.68;;;;;;;12.09;38.18;100147.47;5077990;28;20040;-69
2023/03/14 08:02:15;;;;;;;12.45;8.70;;;;;;;11.82;38.50;100140.56;5078587;28;20089;-69
2023/03/14 08:04:41;;;;;;;15.70;8.30;;;;;;;11.87;38.09;100146.22;5077933;28;20107;-69
2023/03/14 08:07:07;;;;;;;11.70;6.82;;;;;;;11.55;38.51;100143.41;5077803;28;20040;-69
2023/03/14 08:09:32;;;;;;;14.10;7.88;;;;;;;11.91;38.16;100147.56;5077817;28;20374;-69
2023/03/14 08:11:58;;;;;;;13.43;8.50;;;;;;;12.09;37.63;100150.94;5077444;28;20060;-65
2023/03/14 08:14:26;;;;;;;20.02;11.32;;;;;;;12.21;37.46;100134.72;5077406;28;20053;-70
2023/03/14 08:16:51;;;;;;;11.05;8.48;;;;;;;12.46;37.73;100137.22;5077411;28;20074;-65
2023/03/14 08:19:17;;;;;;;13.38;8.18;;;;;;;12.52;36.03;100124.31;5077074;28;20041;-65
2023/03/14 08:21:43;;;;;;;14.30;7.78;;;;;;;12.49;36.01;100122.81;5077389;28;20326;-69
2023/03/14 08:24:08;;;;;;;12.50;8.00;;;;;;;12.59;34.79;100130.63;5077504;28;20028;-64
2023/03/14 08:26:33;;;;;;;10.15;6.10;;;;;;;12.74;35.38;100123.66;5076794;28;20236;-69
2023/03/14 08:28:59;;;;;;;11.95;7.15;;;;;;;12.82;36.02;100123.66;5076725;28;20041;-66
2023/03/14 08:31:24;;;;;;;9.95;5.80;;;;;;;12.79;35.58;100119.50;5076588;28;20353;-63
2023/03/14 08:33:51;;;;;;;8.98;6.88;;;;;;;12.95;35.32;100118.66;5076743;28;20044;-65
2023/03/14 08:36:18;;;;;;;10.45;5.93;;;;;;;12.88;34.28;100117.66;5076922;28;20051;-70
2023/03/14 08:38:43;;;;;;;11.30;6.40;;;;;;;12.73;34.65;100104.22;5077480;28;20048;-69
2023/03/14 08:41:10;;;;;;;10.07;6.38;;;;;;;12.64;34.76;100102.56;5077257;28;20321;-69
2023/03/14 08:43:35;;;;;;;10.52;6.60;;;;;;;12.55;35.46;100110.72;5077181;28;20294;-69
2023/03/14 08:46:02;;;;;;;8.63;6.25;;;;;;;12.54;34.56;100099.25;5077755;28;20074;-69
2023/03/14 08:48:29;;;;;;;10.35;6.47;;;;;;;12.70;35.04;100098.41;5077176;28;20043;-69
2023/03/14 08:50:56;;;;;;;8.80;5.82;;;;;;;12.52;35.08;100090.63;5076374;28;20028;-65
2023/03/14 08:53:22;;;;;;;10.02;5.72;;;;;;;12.56;34.96;100088.47;5076536;28;20036;-65
2023/03/14 08:55:52;;;;;;;8.10;5.75;;;;;;;12.44;35.21;100086.09;5075819;28;20032;-69
2023/03/14 08:58:18;;;;;;;11.15;6.10;;;;;;;12.42;35.96;100079.31;5076673;28;20055;-67
2023/03/14 09:00:43;;;;;;;8.98;6.15;;;;;;;12.53;35.92;100071.03;5076976;28;20040;-66
2023/03/14 09:03:09;;;;;;;8.63;5.25;;;;;;;12.53;36.09;100067.53;5077022;28;20042;-70
2023/03/14 09:05:34;;;;;;;8.75;5.63;;;;;;;12.58;36.28;100057.25;5075885;28;20036;-65
2023/03/14 09:08:00;;;;;;;8.52;5.32;;;;;;;12.77;36.51;100055.06;5077123;28;20648;-70
2023/03/14 09:10:26;;;;;;;8.77;5.57;;;;;;;12.98;36.58;100043.06;5077436;28;20051;-63
2023/03/14 09:12:51;;;;;;;7.97;5.90;;;;;;;13.11;36.25;100046.00;5076442;28;20250;-67
2023/03/14 09:15:16;;;;;;;6.75;4.93;;;;;;;12.97;35.82;100039.56;5076967;28;20052;-68
2023/03/14 09:17:43;;;;;;;6.13;4.45;;;;;;;13.03;35.43;100040.72;5076994;28;20061;-68
2023/03/14 09:20:09;;;;;;;6.72;4.63;;;;;;;12.88;34.97;100034.44;5076988;28;20036;-65
2023/03/14 09:22:35;;;;;;;6.18;4.10;;;;;;;12.38;36.57;100033.66;5076869;28;20036;-63
2023/03/14 09:25:02;;;;;;;5.60;4.50;;;;;;;12.26;35.73;100020.88;5076222;28;20344;-63
2023/03/14 09:27:27;;;;;;;6.65;3.63;;;;;;;12.18;36.01;100016.41;5077076;28;20040;-69
2023/03/14 09:29:53;;;;;;;8.10;3.47;;;;;;;11.86;36.85;100019.03;5076781;28;20051;-65
2023/03/14 09:32:18;;;;;;;4.47;2.70;;;;;;;11.20;36.29;100020.59;5077379;28;20029;-69
2023/03/14 09:34:44;;;;;;;4.32;2.60;;;;;;;11.40;35.73;100002.63;5075588;28;20039;-69
2023/03/14 09:37:09;;;;;;;4.32;2.70;;;;;;;11.22;35.75;100004.53;5076299;28;20063;-70
2023/03/14 09:39:34;;;;;;;4.00;2.88;;;;;;;11.66;36.71;99999.91;5077122;28;20340;-67
2023/03/14 09:42:04;;;;;;;3.53;2.40;;;;;;;11.85;36.67;99991.66;5075443;28;20024;-66
2023/03/14 09:44:39;;;;;;;5.40;3.00;;;;;;;11.84;36.26;99992.66;5075782;28;20044;-66
2023/03/14 09:47:13;;;;;;;5.32;2.95;;;;;;;11.87;35.67;99984.38;5076379;28;20033;-69
2023/03/14 09:49:41;;;;;;;;;;;;;;;11.85;37.43;99982.88;5077277;28;20464;-66
2023/03/14 09:52:15;;;;;;;3.63;2.42;;;;;;;11.71;37.25;99984.31;5077369;28;20102;-69
2023/03/14 09:54:50;;;;;;;3.85;2.47;;;;;;;11.55;35.83;99982.47;5075632;28;20036;-69
2023/03/14 09:57:19;;;;;;;4.35;2.60;;;;;;;11.29;37.21;99984.34;5075884;28;20076;-66
2023/03/14 09:59:46;;;;;;;4.68;2.78;;;;;;;11.03;37.60;99985.25;5076681;28;20039;-69
2023/03/14 10:02:23;;;;;;;6.72;3.67;;;;;;;11.34;37.27;99979.41;5077002;28;20036;-69
2023/03/14 10:04:52;;;;;;;2.85;2.40;;;;;;;11.35;37.08;99973.09;5075868;28;20127;-71
2023/03/14 10:07:26;;;;;;;3.33;2.60;;;;;;;11.62;36.84;99969.38;5076878;28;20033;-66
2023/03/14 10:09:52;;;;;;;53.17;19.02;;;;;;;11.56;37.04;99948.81;5076763;28;20246;-69
2023/03/14 10:12:19;;;;;;;37.63;16.88;;;;;;;11.62;37.87;99946.34;5077321;28;20054;-70
2023/03/14 10:14:49;;;;;;;14.18;6.05;;;;;;;11.95;37.98;99954.34;5076794;28;20045;-66
2023/03/14 10:17:16;;;;;;;5.00;2.50;;;;;;;12.09;36.63;99949.22;5076139;28;20279;-65
2023/03/14 10:20:00;;;;;;;4.03;2.55;;;;;;;12.04;35.94;99937.44;5075942;28;20056;-65
2023/03/14 10:22:30;;;;;;;3.50;2.45;;;;;;;11.92;37.00;99928.16;5077103;28;20025;-69
2023/03/14 10:25:04;;;;;;;3.85;2.60;;;;;;;11.93;36.67;99919.19;5076284;28;20040;-69
2023/03/14 10:27:35;;;;;;;18.60;3.65;;;;;;;11.94;36.42;99915.56;5077781;28;20047;-66
2023/03/14 10:30:05;;;;;;;3.85;2.40;;;;;;;11.99;37.75;99911.41;5076075;28;20337;-65
2023/03/14 10:32:40;;;;;;;5.10;2.60;;;;;;;11.95;36.64;99882.72;5076137;28;20070;-65
2023/03/14 10:35:14;;;;;;;4.18;2.50;;;;;;;12.14;36.24;99895.63;5075215;28;20037;-69
2023/03/14 10:37:58;;;;;;;3.08;2.08;;;;;;;11.85;34.75;99893.50;5078640;28;20070;-69
2023/03/14 10:40:49;;;;;;;4.22;2.50;;;;;;;12.08;33.81;99891.81;5073591;28;20361;-70
2023/03/14 10:43:21;;;;;;;6.05;2.67;;;;;;;12.14;35.74;99882.34;5074254;28;20762;-65
2023/03/14 10:45:59;;;;;;;10.15;3.85;;;;;;;12.15;35.44;99878.69;5074614;28;20024;-66
2023/03/14 10:48:40;;;;;;;6.47;2.85;;;;;;;12.12;34.98;99868.41;5072998;28;20036;-65
2023/03/14 10:51:27;;;;;;;8.10;3.13;;;;;;;12.37;35.01;99856.75;5073926;28;20039;-63
2023/03/14 10:53:57;;;;;;;4.88;2.63;;;;;;;12.10;34.79;99855.31;5073246;28;20037;-67
2023/03/14 10:56:25;;;;;;;3.88;2.85;;;;;;;12.27;34.73;99849.97;5073389;28;20105;-65
2023/03/14 10:58:55;;;;;;;4.65;2.92;;;;;;;12.32;34.89;99842.31;5073401;28;20032;-66
2023/03/14 11:01:41;;;;;;;3.63;2.60;;;;;;;12.38;35.24;99837.16;5073788;28;20350;-70
2023/03/14 11:04:25;;;;;;;4.15;3.53;;;;;;;12.49;35.38;99835.16;5073636;28;20072;-70
2023/03/14 11:07:26;;;;;;;;;;;;;;;12.26;33.96;99830.56;5073872;28;20246;-65
2023/03/14 11:10:14;;;;;;;3.97;2.60;;;;;;;12.08;33.78;99820.16;5051170;28;19980;-66
2023/03/14 11:12:51;;;;;;;5.03;3.28;;;;;;;12.06;34.22;99808.88;5072076;28;20059;-69
2023/03/14 11:15:24;;;;;;;4.15;2.85;;;;;;;12.15;36.01;99815.00;5074284;28;20055;-70
2023/03/14 11:18:07;;;;;;;4.25;3.00;;;;;;;12.22;33.33;99793.91;5072200;28;20032;-70
2023/03/14 11:21:04;;;;;;;4.65;2.90;;;;;;;12.28;35.46;99770.16;5070882;28;20310;-66
2023/03/14 11:23:45;;;;;;;4.70;3.00;;;;;;;12.53;34.66;99770.91;5069496;28;20090;-70
2023/03/14 11:26:40;;;;;;;4.88;3.38;;;;;;;12.72;34.50;99767.78;5072835;28;20040;-68
2023/03/14 11:29:28;;;;;;;3.55;2.88;;;;;;;12.74;33.92;99751.69;5063490;28;20065;-62